Titusville, New Jersey
Current Conditions -  °F | °C
As of 1:53 PM on Sunday 23 Nov 2014 (Local Time) from KTTN Reporting Station
Clear Clear  
Wind Chill: 13°   Ceiling: Unl
Heat Index: 13°   Visibility: 8mi
Dew Point: -6°   Wind: 9mph
Humidity: 28%   Direction: 210°SSW
Pressure: 30.14"   Gusts: NA
Location:  40.31°N, 74.88°W
Report Text: KTTN 231853Z 21008KT 8SM CLR 13/M06 A3014 RMK AO2 SLP200 T01281056
Loading
Personal Weather Stations






























Interactive Weather Map New forecast layout! Learn more

10-Day Weather Forecast

Advertisements
Track Severe Weather on mobile